Time;durP1;ratioP1;P1;durP2;ratioP2;P2;SDS_P1;SDS_P2;PMS_P1;PMS_P2;Temp;Humidity;BMP_temperature;BMP_pressure;BME280_temperature;BME280_humidity;BME280_pressure;Samples;Min_cycle;Max_cycle;Signal;HPM_P1;HPM_P2
2020/12/28 00:00:35;;;;;;;23.20;11.03;;;0.10;99.90;;;;;;4380593;32;20190;-76
2020/12/28 00:03:02;;;;;;;23.53;10.80;;;0.10;99.90;;;;;;4380757;32;20146;-76
2020/12/28 00:05:29;;;;;;;21.80;10.93;;;0.10;99.90;;;;;;4380407;32;20174;-76
2020/12/28 00:07:55;;;;;;;24.43;11.97;;;0.10;99.90;;;;;;4381061;32;20146;-76
2020/12/28 00:10:22;;;;;;;22.50;11.10;;;0.10;99.90;;;;;;4380478;32;20156;-76
2020/12/28 00:12:49;;;;;;;22.97;10.83;;;0.10;99.90;;;;;;4380719;32;20162;-76
2020/12/28 00:15:27;;;;;;;19.37;9.63;;;0.10;99.90;;;;;;4380679;32;20143;-76
2020/12/28 00:18:02;;;;;;;23.73;11.07;;;0.20;99.90;;;;;;4380458;32;20415;-76
2020/12/28 00:20:30;;;;;;;19.57;10.60;;;0.20;99.90;;;;;;4380348;32;20531;-76
2020/12/28 00:22:57;;;;;;;21.43;10.37;;;0.10;99.90;;;;;;4367018;32;20170;-76
2020/12/28 00:25:27;;;;;;;20.03;10.20;;;0.10;99.90;;;;;;4380062;32;20183;-76
2020/12/28 00:27:57;;;;;;;18.90;9.97;;;0.10;99.90;;;;;;4382132;32;20207;-76
2020/12/28 00:30:24;;;;;;;22.07;10.60;;;0.10;99.90;;;;;;4380374;32;20143;-76
2020/12/28 00:32:50;;;;;;;21.43;11.07;;;0.10;99.90;;;;;;4380431;32;20202;-76
2020/12/28 00:35:17;;;;;;;21.70;10.03;;;0.10;99.90;;;;;;4380245;32;20400;-76
2020/12/28 00:37:47;;;;;;;18.57;10.23;;;0.10;99.90;;;;;;4381080;32;20187;-76
2020/12/28 00:40:13;;;;;;;19.23;9.93;;;0.10;99.90;;;;;;4380387;32;20143;-76
2020/12/28 00:42:40;;;;;;;20.90;10.80;;;0.10;99.90;;;;;;4368226;32;20177;-76
2020/12/28 00:45:08;;;;;;;22.67;10.63;;;0.20;99.90;;;;;;4381807;32;20152;-76
2020/12/28 00:47:36;;;;;;;20.73;11.00;;;0.20;99.90;;;;;;4380079;32;20344;-76
2020/12/28 00:50:05;;;;;;;20.33;10.00;;;0.20;99.90;;;;;;4380983;32;20140;-76
2020/12/28 00:52:31;;;;;;;18.67;9.63;;;0.20;99.90;;;;;;4380087;32;20463;-75
2020/12/28 00:54:57;;;;;;;19.40;10.30;;;0.30;99.90;;;;;;4380217;32;20148;-76
2020/12/28 00:57:24;;;;;;;19.03;9.87;;;0.30;99.90;;;;;;4379469;32;20151;-76
2020/12/28 00:59:52;;;;;;;18.67;10.17;;;0.40;99.90;;;;;;4379958;32;20146;-75
2020/12/28 01:02:18;;;;;;;22.50;10.87;;;0.40;99.90;;;;;;4379913;32;20166;-76
2020/12/28 01:04:45;;;;;;;19.80;9.87;;;0.40;99.90;;;;;;4380306;32;20221;-76
2020/12/28 01:07:14;;;;;;;17.73;9.30;;;0.50;99.90;;;;;;4379875;32;20461;-76
2020/12/28 01:09:40;;;;;;;19.03;8.90;;;0.50;99.90;;;;;;4379927;32;20234;-76
2020/12/28 01:12:07;;;;;;;18.77;10.03;;;0.50;99.90;;;;;;4367333;32;20202;-76
2020/12/28 01:14:33;;;;;;;19.43;9.83;;;0.60;99.90;;;;;;4379725;32;20144;-76
2020/12/28 01:17:02;;;;;;;19.13;9.80;;;0.60;99.90;;;;;;4379743;32;20154;-76
2020/12/28 01:19:28;;;;;;;19.07;9.50;;;0.60;99.90;;;;;;4379606;32;20506;-76
2020/12/28 01:21:58;;;;;;;16.50;9.20;;;0.70;99.90;;;;;;4379593;32;20470;-76
2020/12/28 01:24:24;;;;;;;18.33;9.70;;;0.70;99.90;;;;;;4379406;32;20174;-76
2020/12/28 01:26:51;;;;;;;16.27;8.93;;;0.70;99.90;;;;;;4380560;32;20179;-76
2020/12/28 01:29:17;;;;;;;16.80;9.20;;;0.70;99.90;;;;;;4379466;32;20159;-76
2020/12/28 01:31:44;;;;;;;20.30;10.20;;;0.80;99.90;;;;;;4381015;32;20173;-76
2020/12/28 01:34:11;;;;;;;18.50;9.13;;;0.80;99.90;;;;;;4379558;32;20174;-76
2020/12/28 01:36:39;;;;;;;19.50;9.50;;;0.80;99.90;;;;;;4379453;32;20190;-76
2020/12/28 01:39:06;;;;;;;18.70;10.00;;;0.80;99.90;;;;;;4380185;32;20209;-76
2020/12/28 01:41:32;;;;;;;20.90;10.03;;;0.80;99.90;;;;;;4379222;32;20136;-76
2020/12/28 01:43:59;;;;;;;17.57;9.50;;;0.80;99.90;;;;;;4379230;32;20140;-76
2020/12/28 01:46:27;;;;;;;18.03;9.97;;;0.80;99.90;;;;;;4379236;32;20148;-76
2020/12/28 01:48:54;;;;;;;17.37;9.83;;;0.90;99.90;;;;;;4378011;32;20179;-76
2020/12/28 01:51:21;;;;;;;17.20;9.33;;;0.90;99.90;;;;;;4365882;32;20319;-76
2020/12/28 01:53:49;;;;;;;19.23;10.03;;;0.90;99.90;;;;;;4379301;32;20143;-76
2020/12/28 01:56:19;;;;;;;20.20;10.23;;;0.90;99.90;;;;;;4379369;32;20497;-76
2020/12/28 01:58:45;;;;;;;18.50;9.53;;;0.90;99.90;;;;;;4378711;32;20148;-76
2020/12/28 02:01:16;;;;;;;20.03;9.67;;;0.90;99.90;;;;;;4380657;32;20136;-76
2020/12/28 02:03:43;;;;;;;19.63;10.23;;;0.90;99.90;;;;;;4379274;32;20573;-76
2020/12/28 02:06:10;;;;;;;19.43;10.00;;;1.00;99.90;;;;;;4379028;32;20190;-76
2020/12/28 02:08:37;;;;;;;18.77;9.83;;;1.00;99.90;;;;;;4380535;32;20189;-76
2020/12/28 02:11:03;;;;;;;19.57;9.90;;;1.10;99.90;;;;;;4379182;32;20194;-76
2020/12/28 02:13:29;;;;;;;19.83;10.53;;;1.10;99.90;;;;;;4378980;32;20143;-76
2020/12/28 02:15:56;;;;;;;18.33;9.67;;;1.10;99.90;;;;;;4379067;32;20144;-76
2020/12/28 02:18:24;;;;;;;17.93;9.80;;;1.20;99.90;;;;;;4378996;32;20392;-76
2020/12/28 02:20:50;;;;;;;19.93;10.40;;;1.30;99.90;;;;;;4378738;32;20511;-76
2020/12/28 02:23:17;;;;;;;17.97;10.00;;;1.30;99.90;;;;;;4378521;32;20529;-76
2020/12/28 02:25:43;;;;;;;16.87;9.57;;;1.30;99.90;;;;;;4378476;32;20194;-76
2020/12/28 02:28:09;;;;;;;20.43;10.20;;;1.30;99.90;;;;;;4378853;32;20182;-76
2020/12/28 02:30:36;;;;;;;20.23;10.30;;;1.40;99.90;;;;;;4380472;32;20171;-76
2020/12/28 02:33:02;;;;;;;19.40;10.50;;;1.40;99.90;;;;;;4379478;32;20170;-76
2020/12/28 02:35:29;;;;;;;20.87;9.90;;;1.40;99.90;;;;;;4378585;32;20148;-76
2020/12/28 02:37:55;;;;;;;17.90;9.87;;;1.50;99.90;;;;;;4379890;32;20167;-76
2020/12/28 02:40:22;;;;;;;18.53;11.10;;;1.50;99.90;;;;;;4379122;32;20405;-76
2020/12/28 02:42:48;;;;;;;17.40;9.57;;;1.50;99.90;;;;;;4378607;32;20390;-76
2020/12/28 02:45:15;;;;;;;18.30;9.33;;;1.60;99.90;;;;;;4379150;32;20210;-76
2020/12/28 02:47:42;;;;;;;17.57;9.73;;;1.60;99.90;;;;;;4378346;32;20164;-76
2020/12/28 02:50:11;;;;;;;16.37;9.17;;;1.60;99.90;;;;;;4380286;32;20202;-76
2020/12/28 02:52:37;;;;;;;18.20;10.13;;;1.70;99.90;;;;;;4378822;32;20136;-76
2020/12/28 02:55:04;;;;;;;18.50;9.77;;;1.70;99.90;;;;;;4378328;32;20148;-76
2020/12/28 02:57:30;;;;;;;16.73;9.43;;;1.70;99.90;;;;;;4378844;32;20225;-76
2020/12/28 02:59:57;;;;;;;16.03;9.90;;;1.70;99.90;;;;;;4378758;32;20140;-76
2020/12/28 03:02:24;;;;;;;15.57;9.10;;;1.70;99.90;;;;;;4380192;32;20166;-76
2020/12/28 03:04:50;;;;;;;18.00;9.90;;;1.80;99.90;;;;;;4378107;32;20221;-76
2020/12/28 03:07:17;;;;;;;15.73;9.17;;;1.80;99.90;;;;;;4379858;32;20208;-76
2020/12/28 03:09:43;;;;;;;18.77;10.07;;;1.80;99.90;;;;;;4380150;32;20170;-76
2020/12/28 03:12:09;;;;;;;16.63;9.20;;;1.80;99.90;;;;;;4378685;32;20194;-76
2020/12/28 03:14:36;;;;;;;19.20;9.97;;;1.80;99.90;;;;;;4379556;32;20156;-76
2020/12/28 03:17:02;;;;;;;17.03;9.63;;;1.80;99.90;;;;;;4378713;32;20181;-76
2020/12/28 03:19:31;;;;;;;16.70;9.80;;;1.80;99.90;;;;;;4379135;32;20501;-76
2020/12/28 03:21:58;;;;;;;18.23;9.50;;;1.80;99.90;;;;;;4381618;32;20140;-76
2020/12/28 03:24:24;;;;;;;18.80;10.10;;;1.80;99.90;;;;;;4381259;32;20159;-76
2020/12/28 03:26:52;;;;;;;18.03;9.70;;;1.80;99.90;;;;;;4381338;32;20198;-76
2020/12/28 03:29:19;;;;;;;17.43;9.50;;;1.80;99.90;;;;;;4381284;32;20140;-76
2020/12/28 03:31:45;;;;;;;18.03;9.73;;;1.70;99.90;;;;;;4381365;32;20462;-76
2020/12/28 03:34:11;;;;;;;17.33;9.23;;;1.70;99.90;;;;;;4381214;32;20148;-76
2020/12/28 03:36:38;;;;;;;17.03;9.70;;;1.70;99.90;;;;;;4382614;32;20147;-76
2020/12/28 03:39:05;;;;;;;18.63;9.90;;;1.60;99.90;;;;;;4382439;32;20148;-76
2020/12/28 03:41:32;;;;;;;17.87;9.03;;;1.70;99.90;;;;;;4381573;32;20213;-76
2020/12/28 03:43:59;;;;;;;16.47;9.73;;;1.70;99.90;;;;;;4381091;32;20515;-76
2020/12/28 03:46:25;;;;;;;18.73;9.60;;;1.70;99.90;;;;;;4380786;32;20151;-76
2020/12/28 03:48:53;;;;;;;17.63;9.60;;;1.70;99.90;;;;;;4381289;32;20140;-76
2020/12/28 03:51:19;;;;;;;18.37;9.70;;;1.70;99.90;;;;;;4381137;32;20409;-76
2020/12/28 03:53:46;;;;;;;20.77;9.63;;;1.70;99.90;;;;;;4380958;32;20473;-76
2020/12/28 03:56:12;;;;;;;17.70;9.17;;;1.70;99.90;;;;;;4380995;32;20170;-76
2020/12/28 03:58:39;;;;;;;17.33;9.43;;;1.70;99.90;;;;;;4380842;32;20197;-76
2020/12/28 04:01:06;;;;;;;18.03;8.87;;;1.70;99.90;;;;;;4380921;32;20569;-76
2020/12/28 04:03:33;;;;;;;17.80;9.40;;;1.70;99.90;;;;;;4380931;32;20171;-76
2020/12/28 04:06:02;;;;;;;19.30;9.10;;;1.70;99.90;;;;;;4380069;32;20485;-76
2020/12/28 04:08:28;;;;;;;16.13;8.47;;;1.70;99.90;;;;;;4380713;32;20147;-76
2020/12/28 04:10:55;;;;;;;14.87;9.13;;;1.70;99.90;;;;;;4382225;32;20144;-76
2020/12/28 04:13:21;;;;;;;17.57;9.20;;;1.70;99.90;;;;;;4380744;32;20152;-76
2020/12/28 04:15:49;;;;;;;17.23;9.07;;;1.80;99.90;;;;;;4382125;32;20171;-76
2020/12/28 04:18:16;;;;;;;17.40;9.20;;;1.70;99.90;;;;;;4380142;32;20197;-76
2020/12/28 04:20:43;;;;;;;15.13;8.33;;;1.70;99.90;;;;;;4380417;32;20152;-76
2020/12/28 04:23:09;;;;;;;16.27;9.00;;;1.70;99.90;;;;;;4380529;32;20173;-76
2020/12/28 04:25:36;;;;;;;17.43;9.60;;;1.80;99.90;;;;;;4380421;32;20202;-76
2020/12/28 04:28:02;;;;;;;18.60;8.77;;;1.80;99.90;;;;;;4380466;32;20175;-76
2020/12/28 04:30:29;;;;;;;16.57;8.67;;;1.80;99.90;;;;;;4380079;32;20147;-76
2020/12/28 04:32:56;;;;;;;17.67;9.30;;;1.80;99.90;;;;;;4380206;32;20152;-76
2020/12/28 04:35:22;;;;;;;17.73;9.10;;;1.70;99.90;;;;;;4380221;32;20543;-76
2020/12/28 04:37:49;;;;;;;17.20;8.93;;;1.70;99.90;;;;;;4381714;32;20198;-76
2020/12/28 04:40:16;;;;;;;16.43;9.87;;;1.80;99.90;;;;;;4380645;32;20202;-76
2020/12/28 04:42:43;;;;;;;16.33;8.93;;;1.70;99.90;;;;;;4380272;32;20140;-76
2020/12/28 04:45:10;;;;;;;15.70;8.97;;;1.80;99.90;;;;;;4379988;32;20211;-76
2020/12/28 04:47:37;;;;;;;19.10;9.53;;;1.80;99.90;;;;;;4380126;32;20512;-76
2020/12/28 04:50:07;;;;;;;17.80;9.67;;;1.80;99.90;;;;;;4380024;32;20140;-76
2020/12/28 04:52:34;;;;;;;16.27;8.87;;;1.80;99.90;;;;;;4380115;32;20144;-76
2020/12/28 04:55:01;;;;;;;17.27;9.27;;;1.90;99.90;;;;;;4380154;32;20394;-76
2020/12/28 04:57:28;;;;;;;18.57;9.53;;;1.90;99.90;;;;;;4379415;32;20147;-76
2020/12/28 04:59:56;;;;;;;17.67;10.07;;;2.00;99.90;;;;;;4379414;32;20190;-76
2020/12/28 05:02:23;;;;;;;18.43;9.63;;;2.00;99.90;;;;;;4379934;32;20470;-76
2020/12/28 05:04:50;;;;;;;17.20;9.43;;;2.00;99.90;;;;;;4380614;32;20215;-76
2020/12/28 05:07:17;;;;;;;18.73;10.03;;;2.10;99.90;;;;;;4379845;32;20175;-76
2020/12/28 05:09:43;;;;;;;18.57;9.37;;;2.10;99.90;;;;;;4379317;32;20159;-76
2020/12/28 05:12:10;;;;;;;19.27;9.80;;;2.10;99.90;;;;;;4379596;32;20144;-76
2020/12/28 05:14:36;;;;;;;17.17;9.97;;;2.20;99.90;;;;;;4379862;32;20170;-76
2020/12/28 05:17:07;;;;;;;16.67;9.53;;;2.20;99.90;;;;;;4379768;32;20147;-76
2020/12/28 05:19:35;;;;;;;19.07;9.73;;;2.20;99.90;;;;;;4379875;32;20201;-76
2020/12/28 05:22:02;;;;;;;17.10;9.63;;;2.20;99.90;;;;;;4379610;32;20183;-76
2020/12/28 05:24:29;;;;;;;17.77;9.40;;;2.20;99.90;;;;;;4380982;32;20155;-76
2020/12/28 05:26:58;;;;;;;16.57;9.77;;;2.20;99.90;;;;;;4379493;32;20156;-76
2020/12/28 05:29:28;;;;;;;17.13;9.63;;;2.20;99.90;;;;;;4379501;32;20207;-76
2020/12/28 05:31:56;;;;;;;19.23;9.93;;;2.30;99.90;;;;;;4379463;32;20171;-75
2020/12/28 05:34:25;;;;;;;18.87;9.47;;;2.30;99.90;;;;;;4379419;32;20159;-76
2020/12/28 05:36:58;;;;;;;17.13;9.47;;;2.30;99.90;;;;;;4379894;32;20143;-76
2020/12/28 05:39:26;;;;;;;18.27;9.80;;;2.40;99.90;;;;;;4379502;32;20470;-76
2020/12/28 05:42:34;;;;;;;18.83;9.83;;;2.30;99.90;;;;;;4379428;32;20190;-76
2020/12/28 05:44:54;;;;;;;18.17;9.63;;;2.40;99.90;;;;;;4377780;32;20178;-76
2020/12/28 05:47:21;;;;;;;16.83;9.67;;;2.40;99.90;;;;;;4379186;32;20139;-76
2020/12/28 05:49:51;;;;;;;17.30;9.70;;;2.40;99.90;;;;;;4379208;32;20148;-76
2020/12/28 05:52:18;;;;;;;18.20;9.93;;;2.40;99.90;;;;;;4379276;32;20152;-76
2020/12/28 05:54:44;;;;;;;17.40;9.17;;;2.30;99.90;;;;;;4379200;32;20143;-76
2020/12/28 05:57:11;;;;;;;20.17;9.40;;;2.30;99.90;;;;;;4379265;32;20514;-76
2020/12/28 05:59:38;;;;;;;17.60;9.40;;;2.40;99.90;;;;;;4379178;32;20191;-76
2020/12/28 06:02:07;;;;;;;18.77;10.10;;;2.40;99.90;;;;;;4380635;32;20453;-76
2020/12/28 06:04:34;;;;;;;15.90;9.73;;;2.30;99.90;;;;;;4379145;32;20166;-76
2020/12/28 06:07:03;;;;;;;18.60;9.70;;;2.30;99.90;;;;;;4380556;32;20191;-76
2020/12/28 06:09:30;;;;;;;19.63;10.63;;;2.30;99.90;;;;;;4378958;32;20489;-76
2020/12/28 06:12:03;;;;;;;17.40;9.70;;;2.30;99.90;;;;;;4379573;32;20144;-76
2020/12/28 06:14:35;;;;;;;18.43;9.70;;;2.30;99.90;;;;;;4379056;32;20596;-76
2020/12/28 06:17:10;;;;;;;19.57;10.27;;;2.30;99.90;;;;;;4378254;32;20179;-76
2020/12/28 06:19:37;;;;;;;20.27;10.17;;;2.30;99.90;;;;;;4379098;32;20429;-76
2020/12/28 06:22:21;;;;;;;18.93;10.23;;;2.40;99.90;;;;;;4379151;32;20151;-76
2020/12/28 06:24:56;;;;;;;22.20;10.67;;;2.40;99.90;;;;;;4379830;32;20174;-76
2020/12/28 06:27:47;;;;;;;18.70;9.77;;;2.40;99.90;;;;;;4378943;32;20151;-76
2020/12/28 06:30:21;;;;;;;19.00;10.53;;;2.40;99.90;;;;;;4379159;32;20206;-76
2020/12/28 06:32:49;;;;;;;18.13;9.83;;;2.40;99.90;;;;;;4380018;32;20144;-76
2020/12/28 06:35:17;;;;;;;19.97;10.73;;;2.40;99.90;;;;;;4379175;32;20147;-76
2020/12/28 06:37:48;;;;;;;18.20;10.23;;;2.40;99.90;;;;;;4379014;32;20177;-76
2020/12/28 06:40:33;;;;;;;19.63;10.50;;;2.40;99.90;;;;;;4378914;32;20186;-77
2020/12/28 06:43:20;;;;;;;19.77;10.73;;;2.40;99.90;;;;;;4379118;32;20191;-78
2020/12/28 06:45:49;;;;;;;22.23;10.73;;;2.30;99.90;;;;;;4380311;32;20466;-76
2020/12/28 06:48:20;;;;;;;20.43;10.57;;;2.30;99.90;;;;;;4378840;32;20167;-76
2020/12/28 06:50:48;;;;;;;20.70;10.90;;;2.30;99.90;;;;;;4378703;32;20454;-76
2020/12/28 06:53:26;;;;;;;19.53;10.90;;;2.20;99.90;;;;;;4378702;32;20136;-76
2020/12/28 06:55:53;;;;;;;17.77;10.43;;;2.30;99.90;;;;;;4380733;32;20155;-76
2020/12/28 06:58:20;;;;;;;21.17;10.83;;;2.30;99.90;;;;;;4381610;32;20191;-76
2020/12/28 07:00:46;;;;;;;19.57;10.80;;;2.30;99.90;;;;;;4367587;32;20175;-76
2020/12/28 07:03:14;;;;;;;22.63;11.57;;;2.30;99.90;;;;;;4383070;32;20174;-76
2020/12/28 07:05:41;;;;;;;22.70;11.30;;;2.30;99.90;;;;;;4381469;32;20155;-77
2020/12/28 07:08:08;;;;;;;21.93;11.20;;;2.30;99.90;;;;;;4381662;32;20405;-78
2020/12/28 07:10:34;;;;;;;21.20;10.97;;;2.30;99.90;;;;;;4381587;32;20136;-78
2020/12/28 07:13:05;;;;;;;19.00;10.93;;;2.20;99.90;;;;;;4381009;32;20522;-78
2020/12/28 07:15:32;;;;;;;20.20;11.30;;;2.30;99.90;;;;;;4383033;32;20139;-78
2020/12/28 07:18:08;;;;;;;21.43;11.40;;;2.20;99.90;;;;;;4381412;32;20216;-77
2020/12/28 07:20:35;;;;;;;19.90;10.33;;;2.20;99.90;;;;;;4381317;32;20214;-77
2020/12/28 07:23:02;;;;;;;19.93;11.20;;;2.30;99.90;;;;;;4381426;32;20186;-77
2020/12/28 07:25:29;;;;;;;21.83;11.60;;;2.30;99.90;;;;;;4381262;32;20186;-77
2020/12/28 07:27:57;;;;;;;21.33;11.40;;;2.30;99.90;;;;;;4381590;32;20400;-77
2020/12/28 07:30:24;;;;;;;21.23;11.00;;;2.30;99.90;;;;;;4380976;32;20219;-77
2020/12/28 07:32:58;;;;;;;21.80;11.03;;;2.20;99.90;;;;;;4380382;32;20196;-77
2020/12/28 07:35:28;;;;;;;21.57;11.20;;;2.20;99.90;;;;;;4382144;32;20135;-77
2020/12/28 07:37:57;;;;;;;21.07;11.60;;;2.30;99.90;;;;;;4381134;32;20174;-77
2020/12/28 07:40:24;;;;;;;21.77;11.97;;;2.30;99.90;;;;;;4381652;32;20212;-76
2020/12/28 07:42:51;;;;;;;21.23;11.67;;;2.30;99.90;;;;;;4380705;32;20183;-77
2020/12/28 07:45:17;;;;;;;20.17;11.33;;;2.30;99.90;;;;;;4380771;32;20201;-77
2020/12/28 07:48:01;;;;;;;21.63;11.53;;;2.30;99.90;;;;;;4380802;32;20140;-76
2020/12/28 07:50:28;;;;;;;20.87;11.80;;;2.30;99.90;;;;;;4380851;32;20155;-77
2020/12/28 07:53:02;;;;;;;20.03;11.20;;;2.30;99.90;;;;;;4380858;32;20155;-77
2020/12/28 07:55:38;;;;;;;22.70;11.20;;;2.40;99.90;;;;;;4381170;32;20466;-77
2020/12/28 07:58:23;;;;;;;20.73;11.50;;;2.50;99.90;;;;;;4382244;32;20148;-77
2020/12/28 08:00:52;;;;;;;20.53;11.60;;;2.50;99.90;;;;;;4382002;32;20148;-77
2020/12/28 08:03:46;;;;;;;22.53;11.43;;;2.50;99.90;;;;;;4380742;32;20500;-77
2020/12/28 08:06:15;;;;;;;20.83;11.07;;;2.50;99.90;;;;;;4380674;32;20450;-77
2020/12/28 08:08:41;;;;;;;22.07;11.53;;;2.50;99.90;;;;;;4381282;32;20179;-77
2020/12/28 08:11:08;;;;;;;22.93;11.23;;;2.50;99.90;;;;;;4368719;32;20238;-77
2020/12/28 08:13:36;;;;;;;21.37;11.60;;;2.50;99.90;;;;;;4380760;32;20352;-76
2020/12/28 08:16:09;;;;;;;21.83;11.73;;;2.50;99.90;;;;;;4380386;32;20183;-77
2020/12/28 08:18:46;;;;;;;23.43;12.37;;;2.70;99.90;;;;;;4381758;32;20170;-77
2020/12/28 08:21:13;;;;;;;20.07;11.07;;;2.70;99.90;;;;;;4380659;32;20178;-77
2020/12/28 08:23:48;;;;;;;20.90;11.20;;;2.90;99.90;;;;;;4379849;32;20144;-77
2020/12/28 08:26:17;;;;;;;20.57;10.83;;;3.00;99.90;;;;;;4380314;32;20452;-77
2020/12/28 08:28:53;;;;;;;17.90;10.70;;;3.00;99.90;;;;;;4381420;32;20156;-77
2020/12/28 08:31:31;;;;;;;19.80;11.13;;;3.10;99.90;;;;;;4380368;32;20140;-76
2020/12/28 08:34:09;;;;;;;20.57;11.63;;;3.10;99.90;;;;;;4381936;32;20174;-76
2020/12/28 08:36:39;;;;;;;19.53;10.87;;;3.10;99.90;;;;;;4379984;32;20155;-77
2020/12/28 08:39:13;;;;;;;20.70;11.33;;;3.20;99.90;;;;;;4380301;32;20422;-76
2020/12/28 08:42:00;;;;;;;20.37;10.70;;;3.20;99.90;;;;;;4379772;32;20199;-76
2020/12/28 08:44:32;;;;;;;22.57;11.10;;;3.30;99.90;;;;;;4381541;32;20391;-77
2020/12/28 08:47:00;;;;;;;21.30;11.70;;;3.40;99.90;;;;;;4380026;32;20163;-77
2020/12/28 08:49:28;;;;;;;18.13;10.83;;;3.40;99.90;;;;;;4380225;32;20152;-77
2020/12/28 08:52:06;;;;;;;20.60;10.73;;;3.40;99.90;;;;;;4380086;32;20199;-77
2020/12/28 08:54:32;;;;;;;18.23;10.13;;;3.40;99.90;;;;;;4379410;32;20186;-77
2020/12/28 08:56:59;;;;;;;18.30;10.50;;;3.50;99.90;;;;;;4379500;32;20186;-76
2020/12/28 08:59:25;;;;;;;20.23;10.77;;;3.60;99.90;;;;;;4380272;32;20472;-77
2020/12/28 09:01:54;;;;;;;18.70;10.37;;;3.60;99.90;;;;;;4379533;32;20144;-77
2020/12/28 09:04:24;;;;;;;19.63;10.80;;;3.60;99.90;;;;;;4379831;32;20148;-77
2020/12/28 09:06:51;;;;;;;19.10;11.07;;;3.60;99.90;;;;;;4379685;32;20222;-77
2020/12/28 09:09:19;;;;;;;19.23;10.07;;;3.70;99.90;;;;;;4381017;32;20167;-77
2020/12/28 09:11:46;;;;;;;18.00;9.87;;;3.80;99.90;;;;;;4379806;32;20170;-77
2020/12/28 09:14:13;;;;;;;20.87;10.33;;;3.80;99.90;;;;;;4379347;32;20171;-77
2020/12/28 09:16:39;;;;;;;19.20;10.30;;;3.90;99.90;;;;;;4379371;32;20193;-76
2020/12/28 09:19:06;;;;;;;18.87;10.10;;;3.90;99.90;;;;;;4378940;32;20159;-77
2020/12/28 09:21:32;;;;;;;17.60;9.97;;;3.80;99.90;;;;;;4380524;32;20152;-76
2020/12/28 09:23:59;;;;;;;18.60;11.00;;;3.80;99.90;;;;;;4379831;32;20441;-77
2020/12/28 09:26:28;;;;;;;18.37;9.80;;;3.90;99.90;;;;;;4380121;32;20151;-77
2020/12/28 09:28:55;;;;;;;17.80;9.50;;;3.90;99.90;;;;;;4379552;32;20140;-77
2020/12/28 09:31:22;;;;;;;19.00;10.57;;;3.90;99.90;;;;;;4379622;32;20191;-77
2020/12/28 09:33:49;;;;;;;18.07;10.23;;;3.90;99.90;;;;;;4379009;32;20143;-77
2020/12/28 09:36:20;;;;;;;17.60;10.00;;;3.90;99.90;;;;;;4379566;32;20144;-77
2020/12/28 09:38:48;;;;;;;17.80;10.30;;;4.00;99.90;;;;;;4379494;32;20147;-77
2020/12/28 09:41:16;;;;;;;17.63;10.27;;;4.10;99.90;;;;;;4380313;32;20136;-77
2020/12/28 09:43:43;;;;;;;20.37;10.20;;;4.20;99.90;;;;;;4365319;32;20219;-77
2020/12/28 09:46:11;;;;;;;16.67;9.80;;;4.30;99.90;;;;;;4379223;32;20171;-77
2020/12/28 09:48:37;;;;;;;16.20;9.57;;;4.40;99.90;;;;;;4378824;32;20187;-77
2020/12/28 09:51:05;;;;;;;19.00;9.77;;;4.40;99.90;;;;;;4379335;32;20355;-77
2020/12/28 09:53:32;;;;;;;15.53;9.47;;;4.50;99.90;;;;;;4378779;32;20449;-77
2020/12/28 09:55:58;;;;;;;16.37;9.37;;;4.60;99.90;;;;;;4380761;32;20169;-77
2020/12/28 09:58:25;;;;;;;17.40;9.57;;;4.60;99.90;;;;;;4379281;32;20152;-77
2020/12/28 10:00:52;;;;;;;18.23;9.57;;;4.60;99.90;;;;;;4379101;32;20236;-77
2020/12/28 10:03:19;;;;;;;15.63;9.33;;;4.60;99.90;;;;;;4379269;32;20212;-77
2020/12/28 10:05:45;;;;;;;15.73;8.93;;;4.60;99.90;;;;;;4380051;32;20163;-77
2020/12/28 10:08:12;;;;;;;15.03;9.47;;;4.60;99.90;;;;;;4378783;32;20234;-77
2020/12/28 10:10:39;;;;;;;15.03;9.33;;;4.70;99.90;;;;;;4379049;32;20156;-77
2020/12/28 10:13:06;;;;;;;16.40;9.40;;;4.70;99.90;;;;;;4366060;32;20235;-77
2020/12/28 10:15:32;;;;;;;14.67;8.20;;;4.80;99.90;;;;;;4379184;32;20151;-77
2020/12/28 10:18:39;;;;;;;14.27;8.90;;;4.80;99.90;;;;;;4379830;32;20136;-77
2020/12/28 10:21:09;;;;;;;15.90;8.80;;;4.90;99.90;;;;;;4332490;33;20169;-77
2020/12/28 10:23:36;;;;;;;15.23;8.43;;;4.90;99.90;;;;;;4331880;33;20192;-77
2020/12/28 10:26:05;;;;;;;13.50;8.50;;;4.90;99.90;;;;;;4332235;33;20180;-77
2020/12/28 10:28:34;;;;;;;12.67;8.07;;;5.00;99.90;;;;;;4333258;33;20156;-77
2020/12/28 10:31:00;;;;;;;13.93;8.23;;;5.10;99.90;;;;;;4335285;33;20216;-77
2020/12/28 10:33:27;;;;;;;14.93;8.60;;;5.00;99.90;;;;;;4335276;33;20154;-77
2020/12/28 10:35:53;;;;;;;13.57;7.53;;;5.00;99.90;;;;;;4336591;33;20153;-77
2020/12/28 10:38:19;;;;;;;17.33;8.13;;;5.10;99.90;;;;;;4335091;33;20213;-77
2020/12/28 10:40:46;;;;;;;13.80;8.20;;;5.00;99.90;;;;;;4335294;33;20215;-77
2020/12/28 10:43:13;;;;;;;13.30;7.57;;;5.00;99.90;;;;;;4336500;33;20161;-78
2020/12/28 10:45:39;;;;;;;13.87;7.97;;;5.00;99.90;;;;;;4335907;33;20203;-77
2020/12/28 10:48:06;;;;;;;10.40;7.10;;;5.10;99.90;;;;;;4336039;33;20531;-77
2020/12/28 10:50:33;;;;;;;13.77;8.17;;;5.10;99.90;;;;;;4334913;33;20212;-77
2020/12/28 10:52:59;;;;;;;15.87;8.30;;;5.20;99.90;;;;;;4335518;33;20148;-77
2020/12/28 10:55:26;;;;;;;11.57;7.37;;;5.20;99.90;;;;;;4335603;32;20468;-76
2020/12/28 10:57:53;;;;;;;13.20;7.27;;;5.40;99.90;;;;;;4381709;32;20195;-77
2020/12/28 11:00:19;;;;;;;11.07;7.13;;;5.40;99.90;;;;;;4383147;32;20160;-77
2020/12/28 11:02:46;;;;;;;12.30;7.10;;;5.50;99.90;;;;;;4381633;32;20154;-77
2020/12/28 11:05:14;;;;;;;11.53;7.17;;;5.40;99.90;;;;;;4381937;32;20234;-77
2020/12/28 11:07:40;;;;;;;12.40;7.20;;;5.50;99.90;;;;;;4381432;32;20144;-78
2020/12/28 11:10:07;;;;;;;11.73;7.07;;;5.50;99.90;;;;;;4382085;32;20163;-77
2020/12/28 11:12:33;;;;;;;11.60;6.70;;;5.50;99.90;;;;;;4382430;32;20159;-78
2020/12/28 11:15:00;;;;;;;10.77;6.67;;;5.50;99.90;;;;;;4381441;32;20466;-77
2020/12/28 11:17:26;;;;;;;11.23;6.60;;;5.50;99.90;;;;;;4381320;32;20148;-77
2020/12/28 11:19:53;;;;;;;11.50;6.77;;;5.50;99.90;;;;;;4381176;32;20164;-77
2020/12/28 11:22:20;;;;;;;9.83;6.60;;;5.50;99.90;;;;;;4381244;32;20144;-77
2020/12/28 11:24:47;;;;;;;10.83;6.60;;;5.50;99.90;;;;;;4380683;32;20438;-77
2020/12/28 11:27:14;;;;;;;10.70;6.53;;;5.50;99.90;;;;;;4380964;32;20509;-76
2020/12/28 11:29:41;;;;;;;10.63;6.47;;;5.60;99.90;;;;;;4380660;32;20167;-77
2020/12/28 11:32:07;;;;;;;11.17;6.27;;;5.50;99.90;;;;;;4381687;32;20143;-77
2020/12/28 11:34:33;;;;;;;10.63;6.67;;;5.60;99.90;;;;;;4382244;32;20489;-77
2020/12/28 11:37:00;;;;;;;12.10;6.90;;;5.60;99.90;;;;;;4381568;32;20200;-77
2020/12/28 11:39:26;;;;;;;12.27;6.23;;;5.50;99.90;;;;;;4380732;32;20164;-77
2020/12/28 11:41:54;;;;;;;11.40;6.67;;;5.50;99.90;;;;;;4381491;32;20188;-78
2020/12/28 11:44:20;;;;;;;13.07;6.77;;;5.60;99.90;;;;;;4382519;32;20151;-77
2020/12/28 11:46:47;;;;;;;11.43;6.53;;;5.60;99.90;;;;;;4379955;32;20163;-78
2020/12/28 11:49:13;;;;;;;13.03;6.70;;;5.50;99.90;;;;;;4381143;32;20171;-78
2020/12/28 11:51:42;;;;;;;11.67;7.20;;;5.50;99.90;;;;;;4381869;32;20202;-78
2020/12/28 11:54:08;;;;;;;10.63;6.53;;;5.60;99.90;;;;;;4382145;32;20139;-78
2020/12/28 11:56:36;;;;;;;10.80;6.40;;;5.60;99.90;;;;;;4380587;32;20140;-77
2020/12/28 11:59:03;;;;;;;9.40;5.80;;;5.60;99.90;;;;;;4380679;32;20179;-77
2020/12/28 12:01:29;;;;;;;10.20;6.10;;;5.70;99.90;;;;;;4380682;32;20168;-77
2020/12/28 12:03:57;;;;;;;11.07;6.60;;;5.70;99.90;;;;;;4382018;32;20151;-77
2020/12/28 12:06:26;;;;;;;10.93;6.70;;;5.70;99.90;;;;;;4380890;32;20163;-77
2020/12/28 12:09:12;;;;;;;10.97;6.27;;;5.70;99.90;;;;;;4380642;32;20386;-77
2020/12/28 12:11:47;;;;;;;11.53;6.53;;;5.70;99.90;;;;;;4380940;32;20152;-77
2020/12/28 12:14:15;;;;;;;9.57;6.53;;;5.70;99.90;;;;;;4380663;32;20392;-77
2020/12/28 12:16:55;;;;;;;12.00;7.07;;;5.70;99.90;;;;;;4381245;32;20451;-76
2020/12/28 12:19:22;;;;;;;11.03;6.70;;;5.80;99.90;;;;;;4380290;32;20192;-76
2020/12/28 12:21:49;;;;;;;11.57;6.80;;;5.80;99.90;;;;;;4381034;32;20148;-76
2020/12/28 12:24:16;;;;;;;11.33;6.80;;;5.80;99.90;;;;;;4380047;32;20163;-75
2020/12/28 12:26:43;;;;;;;11.37;6.80;;;5.90;99.90;;;;;;4380446;32;20170;-76
2020/12/28 12:29:09;;;;;;;12.40;6.63;;;5.90;99.90;;;;;;4379819;32;20148;-77
2020/12/28 12:31:35;;;;;;;10.07;6.50;;;6.00;99.90;;;;;;4380212;32;20198;-77
2020/12/28 12:34:02;;;;;;;10.47;6.63;;;6.00;99.90;;;;;;4380319;32;20187;-76
2020/12/28 12:36:28;;;;;;;11.67;6.67;;;6.10;99.90;;;;;;4381396;32;20178;-77
2020/12/28 12:38:55;;;;;;;9.17;6.10;;;6.10;99.90;;;;;;4381663;32;20145;-77
2020/12/28 12:41:22;;;;;;;11.10;6.43;;;6.20;99.90;;;;;;4380130;32;20480;-76
2020/12/28 12:43:49;;;;;;;10.20;6.50;;;6.20;99.90;;;;;;4380007;32;20170;-76
2020/12/28 12:46:18;;;;;;;11.17;6.47;;;6.40;99.90;;;;;;4381286;32;20196;-75
2020/12/28 12:48:45;;;;;;;10.40;6.10;;;6.40;99.90;;;;;;4381315;32;20156;-76